sensor_id;sensor_type;location;lat;lon;timestamp;pressure;altitude;pressure_sealevel;temperature;humidity
79586;BME280;69054;50.866;4.636;2023-09-18T00:01:16;100120.09;;;17.65;100.00
79586;BME280;69054;50.866;4.636;2023-09-18T00:03:49;100116.03;;;17.73;100.00
79586;BME280;69054;50.866;4.636;2023-09-18T00:06:18;100110.22;;;17.74;100.00
79586;BME280;69054;50.866;4.636;2023-09-18T00:08:46;100099.69;;;17.71;100.00
79586;BME280;69054;50.866;4.636;2023-09-18T00:11:14;100109.59;;;17.67;100.00
79586;BME280;69054;50.866;4.636;2023-09-18T00:13:39;100104.59;;;17.64;100.00
79586;BME280;69054;50.866;4.636;2023-09-18T00:16:08;100079.13;;;17.62;100.00
79586;BME280;69054;50.866;4.636;2023-09-18T00:18:39;100080.81;;;17.63;100.00
79586;BME280;69054;50.866;4.636;2023-09-18T00:21:08;100083.84;;;17.62;100.00
79586;BME280;69054;50.866;4.636;2023-09-18T00:23:38;100102.13;;;17.68;100.00
79586;BME280;69054;50.866;4.636;2023-09-18T00:26:09;100111.31;;;17.73;100.00
79586;BME280;69054;50.866;4.636;2023-09-18T00:28:38;100126.28;;;17.78;100.00
79586;BME280;69054;50.866;4.636;2023-09-18T00:31:03;100122.75;;;17.82;100.00
79586;BME280;69054;50.866;4.636;2023-09-18T00:33:31;100116.09;;;17.83;100.00
79586;BME280;69054;50.866;4.636;2023-09-18T00:35:59;100104.78;;;17.85;100.00
79586;BME280;69054;50.866;4.636;2023-09-18T00:38:27;100092.97;;;17.89;100.00
79586;BME280;69054;50.866;4.636;2023-09-18T00:40:57;100080.66;;;17.97;100.00
79586;BME280;69054;50.866;4.636;2023-09-18T00:43:28;100059.13;;;18.04;100.00
79586;BME280;69054;50.866;4.636;2023-09-18T00:45:56;100042.88;;;18.08;100.00
79586;BME280;69054;50.866;4.636;2023-09-18T00:48:26;100039.06;;;18.14;100.00
79586;BME280;69054;50.866;4.636;2023-09-18T00:50:59;100061.19;;;18.19;100.00
79586;BME280;69054;50.866;4.636;2023-09-18T00:53:26;100091.47;;;18.36;100.00
79586;BME280;69054;50.866;4.636;2023-09-18T00:55:57;100102.88;;;18.45;100.00
79586;BME280;69054;50.866;4.636;2023-09-18T00:58:44;100101.03;;;18.56;100.00
79586;BME280;69054;50.866;4.636;2023-09-18T01:01:12;100102.44;;;18.58;100.00
79586;BME280;69054;50.866;4.636;2023-09-18T01:03:41;100111.81;;;18.57;100.00
79586;BME280;69054;50.866;4.636;2023-09-18T01:06:09;100112.66;;;18.58;100.00
79586;BME280;69054;50.866;4.636;2023-09-18T01:08:41;100115.97;;;18.55;100.00
79586;BME280;69054;50.866;4.636;2023-09-18T01:11:16;100129.22;;;18.53;100.00
79586;BME280;69054;50.866;4.636;2023-09-18T01:14:16;100133.94;;;18.57;100.00
79586;BME280;69054;50.866;4.636;2023-09-18T01:17:00;100114.03;;;18.55;100.00
79586;BME280;69054;50.866;4.636;2023-09-18T01:19:44;100095.53;;;18.61;100.00
79586;BME280;69054;50.866;4.636;2023-09-18T01:22:11;100091.13;;;18.65;100.00
79586;BME280;69054;50.866;4.636;2023-09-18T01:24:47;100101.66;;;18.68;100.00
79586;BME280;69054;50.866;4.636;2023-09-18T01:27:18;100090.28;;;18.65;100.00
79586;BME280;69054;50.866;4.636;2023-09-18T01:29:48;100075.91;;;18.62;100.00
79586;BME280;69054;50.866;4.636;2023-09-18T01:32:38;100082.50;;;18.56;100.00
79586;BME280;69054;50.866;4.636;2023-09-18T01:35:28;100074.75;;;18.53;100.00
79586;BME280;69054;50.866;4.636;2023-09-18T01:38:00;100074.16;;;18.51;100.00
79586;BME280;69054;50.866;4.636;2023-09-18T01:40:30;100096.34;;;18.56;100.00
79586;BME280;69054;50.866;4.636;2023-09-18T01:42:56;100089.13;;;18.55;100.00
79586;BME280;69054;50.866;4.636;2023-09-18T01:45:22;100078.31;;;18.49;100.00
79586;BME280;69054;50.866;4.636;2023-09-18T01:47:48;100056.66;;;18.40;100.00
79586;BME280;69054;50.866;4.636;2023-09-18T01:50:15;100069.06;;;18.38;100.00
79586;BME280;69054;50.866;4.636;2023-09-18T01:52:41;100080.41;;;18.36;100.00
79586;BME280;69054;50.866;4.636;2023-09-18T01:55:10;100064.06;;;18.35;100.00
79586;BME280;69054;50.866;4.636;2023-09-18T01:57:41;100048.06;;;18.37;100.00
79586;BME280;69054;50.866;4.636;2023-09-18T02:00:14;100033.94;;;18.33;100.00
79586;BME280;69054;50.866;4.636;2023-09-18T02:02:42;100032.53;;;18.31;100.00
79586;BME280;69054;50.866;4.636;2023-09-18T02:05:07;100039.44;;;18.28;100.00
79586;BME280;69054;50.866;4.636;2023-09-18T02:07:36;100041.91;;;18.24;100.00
79586;BME280;69054;50.866;4.636;2023-09-18T02:10:01;100027.81;;;18.26;100.00
79586;BME280;69054;50.866;4.636;2023-09-18T02:12:32;100033.03;;;18.22;100.00
79586;BME280;69054;50.866;4.636;2023-09-18T02:14:59;100028.59;;;18.21;100.00
79586;BME280;69054;50.866;4.636;2023-09-18T02:17:33;100019.72;;;18.19;100.00
79586;BME280;69054;50.866;4.636;2023-09-18T02:19:59;100026.88;;;18.15;100.00
79586;BME280;69054;50.866;4.636;2023-09-18T02:22:33;100028.81;;;18.15;100.00
79586;BME280;69054;50.866;4.636;2023-09-18T02:24:59;100036.81;;;18.11;100.00
79586;BME280;69054;50.866;4.636;2023-09-18T02:27:31;100033.72;;;18.07;100.00
79586;BME280;69054;50.866;4.636;2023-09-18T02:29:59;100041.19;;;18.07;100.00
79586;BME280;69054;50.866;4.636;2023-09-18T02:32:25;100042.03;;;18.07;100.00
79586;BME280;69054;50.866;4.636;2023-09-18T02:34:50;100039.84;;;18.09;100.00
79586;BME280;69054;50.866;4.636;2023-09-18T02:37:22;100048.97;;;18.10;100.00
79586;BME280;69054;50.866;4.636;2023-09-18T02:39:59;100039.84;;;18.09;100.00
79586;BME280;69054;50.866;4.636;2023-09-18T02:42:26;100043.16;;;18.12;100.00
79586;BME280;69054;50.866;4.636;2023-09-18T02:44:55;100019.63;;;18.09;100.00
79586;BME280;69054;50.866;4.636;2023-09-18T02:47:23;100023.47;;;18.03;100.00
79586;BME280;69054;50.866;4.636;2023-09-18T02:49:49;100006.59;;;17.99;100.00
79586;BME280;69054;50.866;4.636;2023-09-18T02:52:17;100015.41;;;17.96;100.00
79586;BME280;69054;50.866;4.636;2023-09-18T02:54:44;100002.41;;;17.97;100.00
79586;BME280;69054;50.866;4.636;2023-09-18T02:57:14;100006.31;;;18.01;100.00
79586;BME280;69054;50.866;4.636;2023-09-18T02:59:43;100019.88;;;18.02;100.00
79586;BME280;69054;50.866;4.636;2023-09-18T03:02:10;100041.75;;;18.09;100.00
79586;BME280;69054;50.866;4.636;2023-09-18T03:04:39;100042.59;;;18.09;100.00
79586;BME280;69054;50.866;4.636;2023-09-18T03:07:08;100023.56;;;18.13;100.00
79586;BME280;69054;50.866;4.636;2023-09-18T03:09:35;100030.75;;;18.14;100.00
79586;BME280;69054;50.866;4.636;2023-09-18T03:12:01;100045.19;;;18.21;100.00
79586;BME280;69054;50.866;4.636;2023-09-18T03:14:32;100032.19;;;18.22;100.00
79586;BME280;69054;50.866;4.636;2023-09-18T03:17:02;100020.31;;;18.21;100.00
79586;BME280;69054;50.866;4.636;2023-09-18T03:19:27;99998.19;;;18.21;100.00
79586;BME280;69054;50.866;4.636;2023-09-18T03:21:53;99976.34;;;18.20;100.00
79586;BME280;69054;50.866;4.636;2023-09-18T03:24:22;99997.94;;;18.23;100.00
79586;BME280;69054;50.866;4.636;2023-09-18T03:26:57;99993.50;;;18.22;100.00
79586;BME280;69054;50.866;4.636;2023-09-18T03:29:25;99991.28;;;18.24;100.00
79586;BME280;69054;50.866;4.636;2023-09-18T03:31:55;99988.84;;;18.27;100.00
79586;BME280;69054;50.866;4.636;2023-09-18T03:34:25;99998.22;;;18.26;100.00
79586;BME280;69054;50.866;4.636;2023-09-18T03:36:54;100003.47;;;18.28;100.00
79586;BME280;69054;50.866;4.636;2023-09-18T03:39:25;100004.31;;;18.29;100.00
79586;BME280;69054;50.866;4.636;2023-09-18T03:41:50;99994.38;;;18.27;100.00
79586;BME280;69054;50.866;4.636;2023-09-18T03:44:24;100000.72;;;18.28;100.00
79586;BME280;69054;50.866;4.636;2023-09-18T03:46:53;100002.66;;;18.27;100.00
79586;BME280;69054;50.866;4.636;2023-09-18T03:49:22;100003.19;;;18.24;100.00
79586;BME280;69054;50.866;4.636;2023-09-18T03:52:00;99990.47;;;18.23;100.00
79586;BME280;69054;50.866;4.636;2023-09-18T03:54:33;99981.03;;;18.19;100.00
79586;BME280;69054;50.866;4.636;2023-09-18T03:57:07;99981.03;;;18.19;100.00
79586;BME280;69054;50.866;4.636;2023-09-18T03:59:34;99971.09;;;18.18;100.00
79586;BME280;69054;50.866;4.636;2023-09-18T04:01:59;99964.44;;;18.19;100.00
79586;BME280;69054;50.866;4.636;2023-09-18T04:04:28;99967.78;;;18.21;100.00
79586;BME280;69054;50.866;4.636;2023-09-18T04:06:57;99961.13;;;18.22;100.00
79586;BME280;69054;50.866;4.636;2023-09-18T04:09:34;99954.50;;;18.23;100.00
79586;BME280;69054;50.866;4.636;2023-09-18T04:12:04;99951.47;;;18.25;100.00
79586;BME280;69054;50.866;4.636;2023-09-18T04:14:33;99944.88;;;18.26;100.00
79586;BME280;69054;50.866;4.636;2023-09-18T04:17:07;99947.91;;;18.30;100.00
79586;BME280;69054;50.866;4.636;2023-09-18T04:19:33;99954.25;;;18.25;100.00
79586;BME280;69054;50.866;4.636;2023-09-18T04:22:10;99939.63;;;18.30;100.00
79586;BME280;69054;50.866;4.636;2023-09-18T04:24:40;99944.06;;;18.31;100.00
79586;BME280;69054;50.866;4.636;2023-09-18T04:27:06;99944.31;;;18.29;100.00
79586;BME280;69054;50.866;4.636;2023-09-18T04:29:33;99945.41;;;18.23;100.00
79586;BME280;69054;50.866;4.636;2023-09-18T04:31:59;99930.44;;;18.19;100.00
79586;BME280;69054;50.866;4.636;2023-09-18T04:34:25;99936.22;;;18.17;100.00
79586;BME280;69054;50.866;4.636;2023-09-18T04:36:51;99942.78;;;18.06;100.00
79586;BME280;69054;50.866;4.636;2023-09-18T04:39:18;99957.75;;;18.10;100.00
79586;BME280;69054;50.866;4.636;2023-09-18T04:41:46;99959.38;;;18.06;100.00
79586;BME280;69054;50.866;4.636;2023-09-18T04:44:17;99942.22;;;18.04;100.00
79586;BME280;69054;50.866;4.636;2023-09-18T04:46:46;99942.72;;;17.96;100.00
79586;BME280;69054;50.866;4.636;2023-09-18T04:49:12;99927.22;;;17.95;100.00
79586;BME280;69054;50.866;4.636;2023-09-18T04:51:39;99932.75;;;17.95;100.00
79586;BME280;69054;50.866;4.636;2023-09-18T04:54:15;99952.25;;;17.83;100.00
79586;BME280;69054;50.866;4.636;2023-09-18T04:56:47;99944.19;;;17.76;100.00
79586;BME280;69054;50.866;4.636;2023-09-18T04:59:16;99940.28;;;17.72;100.00
79586;BME280;69054;50.866;4.636;2023-09-18T05:01:43;99941.38;;;17.71;100.00
79586;BME280;69054;50.866;4.636;2023-09-18T05:04:11;99934.47;;;17.68;100.00
79586;BME280;69054;50.866;4.636;2023-09-18T05:06:44;99939.69;;;17.65;100.00
79586;BME280;69054;50.866;4.636;2023-09-18T05:09:20;99946.56;;;17.62;100.00
79586;BME280;69054;50.866;4.636;2023-09-18T05:11:50;99938.53;;;17.61;100.00
79586;BME280;69054;50.866;4.636;2023-09-18T05:14:19;99952.34;;;17.61;100.00
79586;BME280;69054;50.866;4.636;2023-09-18T05:16:48;99958.91;;;17.54;100.00
79586;BME280;69054;50.866;4.636;2023-09-18T05:19:16;99966.38;;;17.54;100.00
79586;BME280;69054;50.866;4.636;2023-09-18T05:21:43;99967.19;;;17.54;100.00
79586;BME280;69054;50.866;4.636;2023-09-18T05:24:17;99960.03;;;17.53;100.00
79586;BME280;69054;50.866;4.636;2023-09-18T05:26:58;99955.81;;;17.46;100.00
79586;BME280;69054;50.866;4.636;2023-09-18T05:29:28;99960.22;;;17.47;100.00
79586;BME280;69054;50.866;4.636;2023-09-18T05:31:58;99965.19;;;17.45;100.00
79586;BME280;69054;50.866;4.636;2023-09-18T05:34:24;99959.41;;;17.46;100.00
79586;BME280;69054;50.866;4.636;2023-09-18T05:37:04;99969.94;;;17.49;100.00
79586;BME280;69054;50.866;4.636;2023-09-18T05:39:31;99983.72;;;17.49;100.00
79586;BME280;69054;50.866;4.636;2023-09-18T05:41:58;99970.19;;;17.48;100.00
79586;BME280;69054;50.866;4.636;2023-09-18T05:44:45;99977.00;;;17.40;100.00
79586;BME280;69054;50.866;4.636;2023-09-18T05:47:10;99971.50;;;17.40;100.00
79586;BME280;69054;50.866;4.636;2023-09-18T05:49:39;99969.81;;;17.39;100.00
79586;BME280;69054;50.866;4.636;2023-09-18T05:52:08;99988.00;;;17.35;100.00
79586;BME280;69054;50.866;4.636;2023-09-18T05:54:35;99969.50;;;17.35;100.00
79586;BME280;69054;50.866;4.636;2023-09-18T05:57:04;99981.91;;;17.33;100.00
79586;BME280;69054;50.866;4.636;2023-09-18T05:59:35;99981.88;;;17.28;100.00
79586;BME280;69054;50.866;4.636;2023-09-18T06:02:04;99989.81;;;17.24;100.00
79586;BME280;69054;50.866;4.636;2023-09-18T06:04:34;99997.31;;;17.29;100.00
79586;BME280;69054;50.866;4.636;2023-09-18T06:07:24;100006.72;;;17.28;100.00
79586;BME280;69054;50.866;4.636;2023-09-18T06:09:57;99993.78;;;17.33;100.00
79586;BME280;69054;50.866;4.636;2023-09-18T06:12:42;99993.47;;;17.30;100.00
79586;BME280;69054;50.866;4.636;2023-09-18T06:15:09;99992.13;;;17.32;100.00
79586;BME280;69054;50.866;4.636;2023-09-18T06:17:42;99989.56;;;17.26;100.00
79586;BME280;69054;50.866;4.636;2023-09-18T06:20:10;99999.50;;;17.27;100.00
79586;BME280;69054;50.866;4.636;2023-09-18T06:22:41;100000.94;;;17.29;100.00
79586;BME280;69054;50.866;4.636;2023-09-18T06:25:11;100003.69;;;17.29;100.00
79586;BME280;69054;50.866;4.636;2023-09-18T06:27:57;100022.75;;;17.31;100.00
79586;BME280;69054;50.866;4.636;2023-09-18T06:30:33;100017.53;;;17.34;100.00
79586;BME280;69054;50.866;4.636;2023-09-18T06:33:06;100024.47;;;17.37;100.00
79586;BME280;69054;50.866;4.636;2023-09-18T06:35:34;100029.22;;;17.42;100.00
79586;BME280;69054;50.866;4.636;2023-09-18T06:38:04;100016.31;;;17.47;100.00
79586;BME280;69054;50.866;4.636;2023-09-18T06:40:33;100025.16;;;17.49;100.00
79586;BME280;69054;50.866;4.636;2023-09-18T06:43:00;100024.00;;;17.45;100.00
79586;BME280;69054;50.866;4.636;2023-09-18T06:45:50;100036.97;;;17.45;100.00
79586;BME280;69054;50.866;4.636;2023-09-18T06:48:18;100042.00;;;17.48;100.00
79586;BME280;69054;50.866;4.636;2023-09-18T06:50:50;100040.94;;;17.54;100.00
79586;BME280;69054;50.866;4.636;2023-09-18T06:53:20;100028.03;;;17.60;100.00
79586;BME280;69054;50.866;4.636;2023-09-18T06:55:53;100025.03;;;17.66;100.00
79586;BME280;69054;50.866;4.636;2023-09-18T06:58:24;100039.44;;;17.68;100.00
79586;BME280;69054;50.866;4.636;2023-09-18T07:00:59;100042.50;;;17.72;100.00
79586;BME280;69054;50.866;4.636;2023-09-18T07:03:35;100043.66;;;17.76;100.00
79586;BME280;69054;50.866;4.636;2023-09-18T07:06:03;100042.88;;;17.81;100.00
79586;BME280;69054;50.866;4.636;2023-09-18T07:08:46;100049.25;;;17.86;100.00
79586;BME280;69054;50.866;4.636;2023-09-18T07:11:15;100036.63;;;17.90;100.00
79586;BME280;69054;50.866;4.636;2023-09-18T07:14:03;100039.66;;;17.89;100.00
79586;BME280;69054;50.866;4.636;2023-09-18T07:16:38;100046.88;;;17.90;100.00
79586;BME280;69054;50.866;4.636;2023-09-18T07:19:13;100042.97;;;17.91;100.00
79586;BME280;69054;50.866;4.636;2023-09-18T07:21:42;100050.72;;;17.89;100.00
79586;BME280;69054;50.866;4.636;2023-09-18T07:24:15;100050.13;;;17.87;100.00
79586;BME280;69054;50.866;4.636;2023-09-18T07:26:48;100051.63;;;18.00;99.23
79586;BME280;69054;50.866;4.636;2023-09-18T07:29:21;100048.84;;;17.95;100.00
79586;BME280;69054;50.866;4.636;2023-09-18T07:31:53;100055.50;;;17.99;99.58
79586;BME280;69054;50.866;4.636;2023-09-18T07:34:22;100050.50;;;17.96;99.55
79586;BME280;69054;50.866;4.636;2023-09-18T07:36:52;100046.44;;;18.03;99.43
79586;BME280;69054;50.866;4.636;2023-09-18T07:39:28;100061.97;;;18.47;97.23
79586;BME280;69054;50.866;4.636;2023-09-18T07:41:56;100056.34;;;19.32;92.81
79586;BME280;69054;50.866;4.636;2023-09-18T07:44:22;100052.06;;;20.70;84.86
79586;BME280;69054;50.866;4.636;2023-09-18T07:46:52;100040.41;;;21.39;80.62
79586;BME280;69054;50.866;4.636;2023-09-18T07:49:21;100045.78;;;21.75;78.82
79586;BME280;69054;50.866;4.636;2023-09-18T07:52:07;100041.13;;;22.39;76.09
79586;BME280;69054;50.866;4.636;2023-09-18T07:54:34;100044.94;;;22.48;74.58
79586;BME280;69054;50.866;4.636;2023-09-18T07:57:10;100048.69;;;22.63;74.04
79586;BME280;69054;50.866;4.636;2023-09-18T07:59:53;100058.47;;;23.09;72.64
79586;BME280;69054;50.866;4.636;2023-09-18T08:02:23;100059.34;;;23.09;71.29
79586;BME280;69054;50.866;4.636;2023-09-18T08:04:50;100059.19;;;22.71;71.86
79586;BME280;69054;50.866;4.636;2023-09-18T08:07:20;100065.53;;;22.47;72.94
79586;BME280;69054;50.866;4.636;2023-09-18T08:09:46;100064.06;;;22.21;73.54
79586;BME280;69054;50.866;4.636;2023-09-18T08:12:17;100057.53;;;22.06;74.75
79586;BME280;69054;50.866;4.636;2023-09-18T08:14:43;100052.88;;;22.31;74.04
79586;BME280;69054;50.866;4.636;2023-09-18T08:17:13;100061.91;;;23.00;71.65
79586;BME280;69054;50.866;4.636;2023-09-18T08:19:43;100075.06;;;22.95;71.10
79586;BME280;69054;50.866;4.636;2023-09-18T08:22:13;100080.44;;;23.15;69.60
79586;BME280;69054;50.866;4.636;2023-09-18T08:24:41;100084.34;;;23.77;68.55
79586;BME280;69054;50.866;4.636;2023-09-18T08:27:08;100087.91;;;23.82;68.18
79586;BME280;69054;50.866;4.636;2023-09-18T08:29:38;100094.19;;;23.31;69.29
79586;BME280;69054;50.866;4.636;2023-09-18T08:32:05;100101.38;;;22.83;70.55
79586;BME280;69054;50.866;4.636;2023-09-18T08:34:45;100104.50;;;21.68;75.59
79586;BME280;69054;50.866;4.636;2023-09-18T08:37:12;100105.28;;;21.03;78.50
79586;BME280;69054;50.866;4.636;2023-09-18T08:39:54;100109.75;;;20.94;80.09
79586;BME280;69054;50.866;4.636;2023-09-18T08:42:25;100100.91;;;20.66;80.18
79586;BME280;69054;50.866;4.636;2023-09-18T08:44:58;100110.34;;;20.65;81.85
79586;BME280;69054;50.866;4.636;2023-09-18T08:47:27;100125.34;;;20.74;81.46
79586;BME280;69054;50.866;4.636;2023-09-18T08:50:01;100132.56;;;20.65;81.21
79586;BME280;69054;50.866;4.636;2023-09-18T08:52:31;100126.16;;;20.34;82.25
79586;BME280;69054;50.866;4.636;2023-09-18T08:54:57;100122.53;;;20.28;84.16
79586;BME280;69054;50.866;4.636;2023-09-18T08:57:24;100119.75;;;20.28;82.90
79586;BME280;69054;50.866;4.636;2023-09-18T08:59:54;100119.19;;;20.31;83.75
79586;BME280;69054;50.866;4.636;2023-09-18T09:02:36;100120.88;;;20.17;84.66
79586;BME280;69054;50.866;4.636;2023-09-18T09:05:04;100119.75;;;20.08;84.44
79586;BME280;69054;50.866;4.636;2023-09-18T09:07:35;100128.34;;;20.06;85.32
79586;BME280;69054;50.866;4.636;2023-09-18T09:10:10;100127.78;;;20.19;83.69
79586;BME280;69054;50.866;4.636;2023-09-18T09:13:00;100131.13;;;20.27;83.72
79586;BME280;69054;50.866;4.636;2023-09-18T09:15:44;100134.19;;;20.46;83.17
79586;BME280;69054;50.866;4.636;2023-09-18T09:18:16;100129.47;;;20.56;82.07
79586;BME280;69054;50.866;4.636;2023-09-18T09:21:02;100141.97;;;20.64;82.15
79586;BME280;69054;50.866;4.636;2023-09-18T09:23:48;100135.03;;;20.46;82.39
79586;BME280;69054;50.866;4.636;2023-09-18T09:26:56;100140.84;;;20.45;82.44
79586;BME280;69054;50.866;4.636;2023-09-18T09:29:57;100125.31;;;20.44;81.44
79586;BME280;69054;50.866;4.636;2023-09-18T09:32:23;100130.03;;;20.43;82.25
79586;BME280;69054;50.866;4.636;2023-09-18T09:35:23;100127.81;;;20.45;81.60
79586;BME280;69054;50.866;4.636;2023-09-18T09:37:50;100130.31;;;20.52;81.59
79586;BME280;69054;50.866;4.636;2023-09-18T09:40:25;100131.97;;;20.53;81.61
79586;BME280;69054;50.866;4.636;2023-09-18T09:42:56;100129.75;;;20.81;81.00
79586;BME280;69054;50.866;4.636;2023-09-18T09:45:33;100123.34;;;20.96;79.12
79586;BME280;69054;50.866;4.636;2023-09-18T09:48:04;100131.13;;;20.99;79.64
79586;BME280;69054;50.866;4.636;2023-09-18T09:50:46;100136.84;;;21.28;76.93
79586;BME280;69054;50.866;4.636;2023-09-18T09:53:19;100139.31;;;21.50;75.63
79586;BME280;69054;50.866;4.636;2023-09-18T09:56:14;100132.38;;;21.97;73.13
79586;BME280;69054;50.866;4.636;2023-09-18T09:58:41;100143.22;;;21.99;71.83
79586;BME280;69054;50.866;4.636;2023-09-18T10:01:12;100143.28;;;21.89;72.47
79586;BME280;69054;50.866;4.636;2023-09-18T10:03:45;100152.28;;;21.70;74.20
79586;BME280;69054;50.866;4.636;2023-09-18T10:06:17;100165.66;;;21.63;74.92
79586;BME280;69054;50.866;4.636;2023-09-18T10:09:17;100156.31;;;21.18;74.84
79586;BME280;69054;50.866;4.636;2023-09-18T10:11:51;100146.13;;;20.87;75.76
79586;BME280;69054;50.866;4.636;2023-09-18T10:14:21;100152.81;;;20.86;76.42
79586;BME280;69054;50.866;4.636;2023-09-18T10:16:59;100153.59;;;20.92;76.80
79586;BME280;69054;50.866;4.636;2023-09-18T10:19:49;100155.81;;;21.05;76.05
79586;BME280;69054;50.866;4.636;2023-09-18T10:22:31;100145.50;;;21.21;74.57
79586;BME280;69054;50.866;4.636;2023-09-18T10:25:30;100150.94;;;22.07;72.36
79586;BME280;69054;50.866;4.636;2023-09-18T10:27:59;100162.91;;;23.84;65.82
79586;BME280;69054;50.866;4.636;2023-09-18T10:30:28;100151.13;;;23.68;64.91
79586;BME280;69054;50.866;4.636;2023-09-18T10:33:00;100154.00;;;22.85;67.88
79586;BME280;69054;50.866;4.636;2023-09-18T10:35:38;100150.81;;;22.28;70.84
79586;BME280;69054;50.866;4.636;2023-09-18T10:38:08;100155.53;;;21.88;71.32
79586;BME280;69054;50.866;4.636;2023-09-18T10:40:47;100150.94;;;21.62;71.61
79586;BME280;69054;50.866;4.636;2023-09-18T10:43:16;100149.84;;;21.48;73.88
79586;BME280;69054;50.866;4.636;2023-09-18T10:45:45;100143.25;;;21.23;75.29
79586;BME280;69054;50.866;4.636;2023-09-18T10:48:20;100146.38;;;21.01;73.49
79586;BME280;69054;50.866;4.636;2023-09-18T10:50:47;100143.63;;;20.91;74.46
79586;BME280;69054;50.866;4.636;2023-09-18T10:53:15;100144.81;;;21.66;73.90
79586;BME280;69054;50.866;4.636;2023-09-18T10:56:03;100149.25;;;24.25;63.23
79586;BME280;69054;50.866;4.636;2023-09-18T10:58:34;100152.13;;;25.47;59.10
79586;BME280;69054;50.866;4.636;2023-09-18T11:01:02;100161.13;;;25.72;57.16
79586;BME280;69054;50.866;4.636;2023-09-18T11:03:34;100153.13;;;26.29;55.49
79586;BME280;69054;50.866;4.636;2023-09-18T11:06:11;100153.22;;;26.83;53.67
79586;BME280;69054;50.866;4.636;2023-09-18T11:09:02;100144.34;;;26.90;54.29
79586;BME280;69054;50.866;4.636;2023-09-18T11:11:38;100150.41;;;26.61;53.64
79586;BME280;69054;50.866;4.636;2023-09-18T11:14:13;100146.41;;;26.30;55.31
79586;BME280;69054;50.866;4.636;2023-09-18T11:17:04;100141.72;;;25.75;55.32
79586;BME280;69054;50.866;4.636;2023-09-18T11:19:35;100134.19;;;25.76;54.75
79586;BME280;69054;50.866;4.636;2023-09-18T11:22:27;100136.09;;;26.39;53.24
79586;BME280;69054;50.866;4.636;2023-09-18T11:25:35;100143.69;;;26.39;52.94
79586;BME280;69054;50.866;4.636;2023-09-18T11:28:12;100141.03;;;26.20;54.25
79586;BME280;69054;50.866;4.636;2023-09-18T11:30:51;100145.59;;;26.16;53.43
79586;BME280;69054;50.866;4.636;2023-09-18T11:33:36;100144.50;;;26.62;52.87
79586;BME280;69054;50.866;4.636;2023-09-18T11:36:32;100142.03;;;26.01;52.80
79586;BME280;69054;50.866;4.636;2023-09-18T11:39:02;100141.22;;;26.24;52.90
79586;BME280;69054;50.866;4.636;2023-09-18T11:41:35;100141.19;;;26.37;53.15
79586;BME280;69054;50.866;4.636;2023-09-18T11:46:47;100137.81;;;25.21;56.46
79586;BME280;69054;50.866;4.636;2023-09-18T11:49:18;100138.53;;;24.98;56.45
79586;BME280;69054;50.866;4.636;2023-09-18T11:51:50;100146.94;;;25.54;55.09
79586;BME280;69054;50.866;4.636;2023-09-18T11:54:17;100139.69;;;26.63;52.73
79586;BME280;69054;50.866;4.636;2023-09-18T11:56:47;100149.34;;;27.82;49.96
79586;BME280;69054;50.866;4.636;2023-09-18T11:59:42;100129.56;;;28.31;48.63
79586;BME280;69054;50.866;4.636;2023-09-18T12:02:13;100128.56;;;28.01;47.52
79586;BME280;69054;50.866;4.636;2023-09-18T12:04:47;100133.66;;;27.72;49.28
79586;BME280;69054;50.866;4.636;2023-09-18T12:07:24;100123.31;;;27.41;50.26
79586;BME280;69054;50.866;4.636;2023-09-18T12:10:14;100126.44;;;26.68;50.15
79586;BME280;69054;50.866;4.636;2023-09-18T12:12:48;100129.28;;;27.49;48.36
79586;BME280;69054;50.866;4.636;2023-09-18T12:15:18;100106.63;;;25.83;52.07
79586;BME280;69054;50.866;4.636;2023-09-18T12:17:55;100110.75;;;26.22;52.03
79586;BME280;69054;50.866;4.636;2023-09-18T12:20:20;100101.25;;;27.49;48.82
79586;BME280;69054;50.866;4.636;2023-09-18T12:22:52;100109.25;;;27.33;47.42
79586;BME280;69054;50.866;4.636;2023-09-18T12:25:20;100083.69;;;27.34;47.81
79586;BME280;69054;50.866;4.636;2023-09-18T12:27:53;100092.66;;;27.05;48.06
79586;BME280;69054;50.866;4.636;2023-09-18T12:30:26;100082.13;;;27.11;48.21
79586;BME280;69054;50.866;4.636;2023-09-18T12:32:58;100075.59;;;27.24;48.23
79586;BME280;69054;50.866;4.636;2023-09-18T12:35:56;100077.19;;;27.65;46.81
79586;BME280;69054;50.866;4.636;2023-09-18T12:38:24;100071.06;;;27.72;46.30
79586;BME280;69054;50.866;4.636;2023-09-18T12:40:57;100076.34;;;27.73;46.70
79586;BME280;69054;50.866;4.636;2023-09-18T12:43:35;100066.91;;;27.52;48.37
79586;BME280;69054;50.866;4.636;2023-09-18T12:46:11;100058.88;;;28.20;45.66
79586;BME280;69054;50.866;4.636;2023-09-18T12:49:21;100049.97;;;28.27;45.28
79586;BME280;69054;50.866;4.636;2023-09-18T12:52:03;100064.16;;;27.69;47.38
79586;BME280;69054;50.866;4.636;2023-09-18T12:54:51;100063.81;;;28.41;45.06
79586;BME280;69054;50.866;4.636;2023-09-18T12:57:29;100063.66;;;27.85;45.13
79586;BME280;69054;50.866;4.636;2023-09-18T13:00:11;100042.00;;;26.92;45.27
79586;BME280;69054;50.866;4.636;2023-09-18T13:02:44;100042.69;;;26.98;46.00
79586;BME280;69054;50.866;4.636;2023-09-18T13:05:32;100042.31;;;26.91;45.89
79586;BME280;69054;50.866;4.636;2023-09-18T13:08:26;100040.63;;;27.30;45.59
79586;BME280;69054;50.866;4.636;2023-09-18T13:10:57;100029.06;;;28.54;44.22
79586;BME280;69054;50.866;4.636;2023-09-18T13:13:23;100034.75;;;27.67;45.24
79586;BME280;69054;50.866;4.636;2023-09-18T13:15:52;100024.50;;;26.87;46.16
79586;BME280;69054;50.866;4.636;2023-09-18T13:18:27;100011.16;;;27.59;44.67